Latest Weather Observations for Leonora Airport

IDW60801

Issued at 6:05 pm WST Saturday 22 November 2014 (issued every 30 minutes, with the page automatically refreshed every 10 minutes)

About weather observations | Map of weather stations | Latest weather observations for WA | Other Formats
Station Details ID: 012241 Name: LEONORA AERO Lat: -28.88 Lon: 121.32 Height: 370.0 m
Data from the previous 72 hours. | See also: Recent months for locations in Western Australia
Date/Time
WST
Temp
°C
App
Temp
°C
Dew
Point
Rel
Hum
%
Delta-T
°C
Wind Press
QNH
hPa
Press
MSL
hPa
Rain
since 9 am
mm
Dir
 
Spd
km/h
Gust
km/h
Spd
kts
Gust
kts
22/06:00pm 30.9 26.0 5.3 20 13.7 SW 20 30 11 16 1008.9 1006.9 0.0
22/05:30pm 32.0 27.6 4.7 18 14.6 W 17 26 9 14 1008.6 1006.6 0.0
22/05:00pm 32.3 27.2 4.2 17 14.9 W 20 30 11 16 1008.4 1006.4 0.0
22/04:30pm 32.5 26.5 5.1 18 14.7 W 26 33 14 18 1008.4 1006.4 0.0
22/04:00pm 32.3 27.4 4.2 17 14.9 W 19 30 10 16 1008.4 1006.4 0.0
22/03:30pm 32.1 26.4 3.1 16 15.0 W 22 28 12 15 1008.5 1006.5 0.0
22/03:00pm 32.2 27.3 4.1 17 14.9 W 19 24 10 13 1008.9 1006.9 0.0
22/02:30pm 32.0 26.0 5.5 19 14.3 WNW 26 39 14 21 1009.2 1007.2 0.0
22/02:00pm 31.8 26.8 4.6 18 14.5 W 20 32 11 17 1009.6 1007.6 0.0
22/01:30pm 31.8 26.0 6.1 20 14.0 W 26 41 14 22 1009.9 1007.8 0.0
22/01:00pm 31.2 26.0 5.6 20 13.8 W 22 33 12 18 1010.2 1008.2 0.0
22/12:30pm 31.0 26.5 6.8 22 13.3 WSW 20 33 11 18 1010.4 1008.4 0.0
22/12:00pm 29.5 27.2 7.4 25 12.2 SW 9 15 5 8 1010.9 1008.9 0.0
22/11:30am 28.6 26.1 6.7 25 11.8 NW 9 20 5 11 1011.3 1009.3 0.0
22/11:00am 27.7 25.3 7.0 27 11.2 ENE 9 15 5 8 1011.8 1009.8 0.0
22/10:30am 27.3 24.9 7.2 28 10.9 ENE 9 13 5 7 1012.3 1010.4 0.0
22/10:00am 25.8 23.4 6.9 30 10.1 NW 9 17 5 9 1012.6 1010.6 0.0
22/09:30am 25.7 23.4 7.3 31 9.9 WSW 9 15 5 8 1013.0 1011.0 0.0
22/09:00am 25.0 22.3 7.2 32 9.5 S 11 17 6 9 1013.2 1011.2 0.0
22/08:30am 24.4 21.6 7.1 33 9.2 S 11 20 6 11 1013.3 1011.3 0.0
22/08:00am 23.4 19.5 7.1 35 8.6 S 17 24 9 13 1013.3 1011.3 0.0
22/07:30am 23.0 18.8 7.5 37 8.2 S 19 28 10 15 1013.2 1011.2 0.0
22/07:00am 21.9 17.1 7.3 39 7.7 S 22 32 12 17 1012.8 1010.8 0.0
22/06:30am 21.7 17.4 7.9 41 7.3 S 20 26 11 14 1012.4 1010.5 0.0
22/06:00am 20.5 16.8 7.8 44 6.7 S 17 24 9 13 1012.0 1010.0 0.0
22/05:30am 19.7 16.7 7.8 46 6.2 S 13 19 7 10 1011.8 1009.8 0.0
22/05:00am 19.2 15.8 7.6 47 6.0 SSW 15 20 8 11 1011.3 1009.3 0.0
22/04:30am 18.3 15.6 7.4 49 5.6 SSW 11 17 6 9 1010.8 1008.8 0.0
22/04:00am 18.3 16.2 6.5 46 6.0 SW 7 11 4 6 1010.4 1008.4 0.0
22/03:30am 18.4 15.6 3.1 36 7.2 W 7 7 4 4 1010.0 1008.0 0.0
22/03:00am 18.4 17.2 4.6 40 6.7 CALM 0 0 0 0 1009.6 1007.6 0.0
22/02:30am 18.9 17.4 3.1 35 7.5 CALM 0 0 0 0 1009.5 1007.5 0.0
22/02:00am 19.4 17.9 3.2 34 7.8 CALM 0 0 0 0 1009.4 1007.4 0.0
22/01:30am 19.9 18.5 3.6 34 7.9 CALM 0 0 0 0 1009.3 1007.3 0.0
22/01:00am 20.1 18.6 2.9 32 8.2 CALM 0 0 0 0 1009.3 1007.3 0.0
22/12:30am 20.8 19.0 3.5 32 8.4 SSW 2 6 1 3 1009.4 1007.4 0.0
22/12:00am 21.0 18.0 2.3 29 8.9 SSW 7 9 4 5 1009.4 1007.4 0.0
 
Date/Time
WST
Temp
°C
App
Temp
°C
Dew
Point
Rel
Hum
%
Delta-T
°C
Wind Press
QNH
hPa
Press
MSL
hPa
Rain
since 9 am
mm
Dir
 
Spd
km/h
Gust
km/h
Spd
kts
Gust
kts
21/11:30pm 21.6 18.2 1.8 27 9.4 SW 9 11 5 6 1009.5 1007.5 0.0
21/11:00pm 22.3 19.1 0.8 24 10.0 WSW 7 9 4 5 1009.6 1007.6 0.0
21/10:30pm 23.1 19.3 -1.1 20 10.9 W 9 9 5 5 1009.6 1007.6 0.0
21/10:00pm 23.3 19.8 -1.6 19 11.2 W 7 7 4 4 1009.6 1007.6 0.0
21/09:30pm 23.6 20.2 -2.1 18 11.5 WSW 6 7 3 4 1009.8 1007.7 0.0
21/09:00pm 24.8 21.2 -3.6 15 12.5 W 6 9 3 5 1009.6 1007.6 0.0
21/08:30pm 25.4 21.6 -4.0 14 12.9 SW 7 9 4 5 1009.5 1007.5 0.0
21/08:00pm 27.0 22.7 -4.8 12 13.9 SW 9 13 5 7 1009.3 1007.3 0.0
21/07:30pm 28.2 23.2 -3.9 12 14.4 SW 13 17 7 9 1009.1 1007.1 0.0
21/07:00pm 29.3 24.8 -3.0 12 14.9 SW 11 17 6 9 1008.8 1006.8 0.0
21/06:30pm 30.7 25.2 -1.9 12 15.4 WSW 17 26 9 14 1008.5 1006.5 0.0
21/06:00pm 31.9 26.0 -1.0 12 16.0 W 20 28 11 15 1008.3 1006.3 0.0
21/05:30pm 32.5 26.3 -0.5 12 16.2 W 22 37 12 20 1008.0 1006.0 0.0
21/05:00pm 33.2 26.4 1.1 13 16.3 W 26 41 14 22 1007.8 1005.8 0.0
21/04:30pm 33.4 27.6 2.3 14 16.0 W 22 33 12 18 1007.6 1005.6 0.0
21/04:00pm 34.0 28.1 1.7 13 16.6 W 22 39 12 21 1007.5 1005.4 0.0
21/03:30pm 33.9 27.8 2.7 14 16.3 W 24 39 13 21 1007.6 1005.6 0.0
21/03:19pm 33.9 26.6 2.7 14 16.3 WSW 30 48 16 26 1007.5 1005.4 0.0
21/03:00pm 33.5 26.6 2.4 14 16.1 WNW 28 37 15 20 1007.9 1005.9 0.0
21/02:30pm 33.3 26.7 2.2 14 16.0 W 26 37 14 20 1008.2 1006.2 0.0
21/02:00pm 33.1 27.0 3.0 15 15.7 WNW 24 43 13 23 1008.5 1006.5 0.0
21/01:30pm 32.4 25.4 4.2 17 14.9 WNW 30 44 16 24 1009.0 1007.0 0.0
21/01:00pm 32.2 25.4 4.9 18 14.6 WNW 30 41 16 22 1009.4 1007.4 0.0
21/12:30pm 31.7 26.5 5.3 19 14.2 WNW 22 37 12 20 1009.6 1007.6 0.0
21/12:00pm 31.0 25.9 6.1 21 13.5 W 22 33 12 18 1010.2 1008.2 0.0
21/11:30am 30.7 26.7 6.6 22 13.1 SW 17 28 9 15 1010.5 1008.5 0.0
21/11:00am 29.7 27.1 7.6 25 12.2 WSW 11 19 6 10 1011.0 1009.0 0.0
21/10:30am 27.9 24.8 7.2 27 11.2 W 13 20 7 11 1011.4 1009.4 0.0
21/10:00am 27.3 24.3 7.7 29 10.7 W 13 20 7 11 1011.8 1009.8 0.0
21/09:30am 27.1 25.1 8.5 31 10.3 SW 9 17 5 9 1012.0 1010.0 0.0
21/09:00am 26.0 24.5 8.5 33 9.6 S 6 13 3 7 1012.1 1010.1 0.0
21/08:30am 24.5 22.5 8.5 36 8.7 S 9 15 5 8 1012.4 1010.5 0.0
21/08:00am 23.9 21.3 7.9 36 8.6 S 11 20 6 11 1012.4 1010.5 0.0
21/07:30am 23.5 20.6 8.0 37 8.3 S 13 20 7 11 1012.6 1010.6 0.0
21/07:00am 22.4 18.7 7.8 39 7.8 SSE 17 22 9 12 1012.3 1010.4 0.0
21/06:30am 21.5 17.7 7.7 41 7.3 S 17 22 9 12 1012.1 1010.1 0.0
21/06:00am 20.6 17.7 6.5 40 7.2 SSW 11 19 6 10 1011.9 1009.9 0.0
21/05:30am 19.8 17.4 6.9 43 6.6 SSW 9 11 5 6 1011.7 1009.7 0.0
21/05:00am 18.9 16.2 5.7 42 6.6 SSW 9 11 5 6 1011.4 1009.4 0.0
21/04:30am 19.2 16.7 4.9 39 7.1 SSW 7 9 4 5 1011.1 1009.1 0.0
21/04:00am 20.1 17.2 4.6 36 7.7 S 9 11 5 6 1010.6 1008.6 0.0
21/03:30am 20.7 17.4 4.3 34 8.1 S 11 15 6 8 1010.2 1008.2 0.0
21/03:00am 20.4 17.3 3.6 33 8.2 SSW 9 11 5 6 1009.9 1007.8 0.0
21/02:30am 19.9 18.1 3.6 34 7.9 SSW 2 9 1 5 1009.5 1007.5 0.0
21/02:00am 20.6 18.4 3.3 32 8.4 SW 4 7 2 4 1009.3 1007.3 0.0
21/01:30am 21.2 18.4 3.0 30 8.8 SW 7 9 4 5 1009.2 1007.2 0.0
21/01:00am 21.4 18.6 3.1 30 8.9 SW 7 9 4 5 1009.2 1007.2 0.0
21/12:30am 21.0 19.5 2.8 30 8.7 CALM 0 0 0 0 1009.2 1007.2 0.0
21/12:00am 21.1 19.5 2.4 29 8.9 CALM 0 0 0 0 1009.4 1007.4 0.0
 
Date/Time
WST
Temp
°C
App
Temp
°C
Dew
Point
Rel
Hum
%
Delta-T
°C
Wind Press
QNH
hPa
Press
MSL
hPa
Rain
since 9 am
mm
Dir
 
Spd
km/h
Gust
km/h
Spd
kts
Gust
kts
20/11:30pm 21.9 19.9 2.1 27 9.4 WSW 2 6 1 3 1009.6 1007.6 0.0
20/11:00pm 23.0 21.6 3.5 28 9.6 CALM 0 0 0 0 1009.8 1007.7 0.0
20/10:30pm 23.7 22.2 3.1 26 10.1 CALM 0 0 0 0 1009.9 1007.8 0.0
20/10:00pm 24.3 22.8 3.0 25 10.5 CALM 0 0 0 0 1010.2 1008.2 0.0
20/09:30pm 24.9 22.9 2.4 23 11.0 S 2 7 1 4 1010.4 1008.4 0.0
20/09:00pm 26.4 23.4 1.7 20 12.1 W 7 13 4 7 1010.4 1008.4 0.0
20/08:30pm 27.5 24.0 1.1 18 12.9 NW 9 9 5 5 1010.2 1008.2 0.0
20/08:00pm 28.2 24.8 1.7 18 13.1 NW 9 11 5 6 1010.0 1008.0 0.0
20/07:30pm 29.0 25.5 1.5 17 13.6 NW 9 11 5 6 1009.9 1007.8 0.0
20/07:00pm 30.6 27.1 1.0 15 14.7 NW 9 17 5 9 1009.6 1007.6 0.0
20/06:30pm 31.8 28.1 0.0 13 15.6 WNW 9 13 5 7 1009.3 1007.3 0.0
20/06:00pm 32.9 28.4 -0.2 12 16.4 W 13 20 7 11 1009.2 1007.2 0.0
20/05:30pm 33.3 28.9 0.1 12 16.5 WNW 13 17 7 9 1009.2 1007.2 0.0
20/05:00pm 33.4 27.5 -1.0 11 16.8 W 20 30 11 16 1009.0 1007.0 0.0
20/04:30pm 33.2 28.0 0.0 12 16.5 WNW 17 20 9 11 1009.2 1007.2 0.0
20/04:00pm 32.8 27.9 -0.3 12 16.3 NW 15 24 8 13 1009.2 1007.2 0.0
20/03:30pm 33.4 27.8 0.1 12 16.6 W 19 33 10 18 1009.3 1007.3 0.0
20/03:00pm 33.2 27.6 -2.5 10 17.0 W 17 28 9 15 1009.8 1007.7 0.0
20/02:30pm 33.0 26.5 -2.6 10 16.9 W 22 33 12 18 1010.0 1008.0 0.0
20/02:00pm 32.2 27.8 0.3 13 15.8 WNW 13 24 7 13 1010.2 1008.2 0.0
20/01:30pm 33.0 29.4 2.9 15 15.6 SW 11 26 6 14 1010.6 1008.6 0.0
20/01:00pm 32.2 28.6 3.2 16 15.1 ESE 11 24 6 13 1011.0 1009.0 0.0
20/12:30pm 30.7 26.0 2.9 17 14.3 WNW 17 28 9 15 1011.7 1009.7 0.0
20/12:00pm 30.5 27.9 4.3 19 13.7 NW 7 13 4 7 1012.0 1010.0 0.0
20/11:30am 29.9 25.5 4.5 20 13.3 N 17 26 9 14 1012.6 1010.6 0.0
20/11:00am 28.7 26.0 5.5 23 12.3 NW 9 22 5 12 1013.3 1011.3 0.0
20/10:30am 28.2 26.3 7.4 27 11.3 ESE 7 17 4 9 1013.7 1011.7 0.0
20/10:00am 28.0 25.1 6.7 26 11.5 N 11 17 6 9 1014.2 1012.2 0.0
20/09:30am 27.2 24.6 7.6 29 10.7 N 11 20 6 11 1014.5 1012.5 0.0
20/09:00am 26.5 24.2 8.9 33 9.8 N 11 19 6 10 1014.8 1012.9 0.0
20/08:30am 25.4 23.4 11.6 42 8.0 ENE 13 19 7 10 1015.0 1013.1 0.0
20/08:00am 24.5 22.8 12.5 47 7.0 ENE 13 19 7 10 1015.0 1013.1 0.0
20/07:30am 23.0 21.1 12.9 53 5.9 NE 15 22 8 12 1014.9 1013.0 0.0
20/07:00am 21.9 20.0 13.0 57 5.2 ENE 15 22 8 12 1014.8 1012.9 0.0
20/06:30am 20.5 18.4 12.5 60 4.6 E 15 20 8 11 1014.6 1012.6 0.0
20/06:00am 19.7 18.1 11.7 60 4.5 ESE 11 15 6 8 1014.4 1012.4 0.0
20/05:30am 18.3 16.6 11.1 63 4.0 SE 11 15 6 8 1014.0 1012.0 0.0
20/05:00am 17.4 16.0 10.8 65 3.6 SSE 9 13 5 7 1013.7 1011.7 0.0
20/04:30am 17.9 15.7 10.8 63 3.9 ESE 13 17 7 9 1013.2 1011.2 0.0
20/04:00am 18.0 15.7 10.6 62 4.0 ESE 13 19 7 10 1013.1 1011.1 0.0
20/03:30am 18.7 16.5 10.8 60 4.3 E 13 17 7 9 1013.0 1011.0 0.0
20/03:00am 19.0 16.8 10.8 59 4.5 ESE 13 17 7 9 1013.0 1011.0 0.0
20/02:30am 19.1 17.4 9.9 55 5.0 ESE 9 13 5 7 1013.1 1011.1 0.0
20/02:00am 19.2 17.0 7.9 48 5.9 SE 9 11 5 6 1013.1 1011.1 0.0
20/01:30am 19.6 16.4 5.3 39 7.1 S 11 13 6 7 1013.2 1011.2 0.0
20/01:00am 18.6 17.0 4.4 39 6.9 SSW 2 11 1 6 1013.2 1011.2 0.0
20/12:30am 19.6 17.2 4.5 37 7.4 SW 6 7 3 4 1013.1 1011.1 0.0
20/12:00am 20.3 18.0 4.8 36 7.7 WNW 6 6 3 3 1013.5 1011.5 0.0
 
Date/Time
WST
Temp
°C
App
Temp
°C
Dew
Point
Rel
Hum
%
Delta-T
°C
Wind Press
QNH
hPa
Press
MSL
hPa
Rain
since 9 am
mm
Dir
 
Spd
km/h
Gust
km/h
Spd
kts
Gust
kts
19/11:30pm 20.7 18.2 4.7 35 7.9 WSW 7 9 4 5 1013.5 1011.5 0.0
19/11:00pm 19.8 18.3 5.1 38 7.3 W 2 7 1 4 1013.6 1011.6 0.0
19/10:30pm 20.3 18.8 4.8 36 7.7 W 2 6 1 3 1013.7 1011.7 0.0
19/10:00pm 21.8 19.5 4.8 33 8.5 W 6 7 3 4 1013.7 1011.7 0.0
19/09:30pm 22.7 20.3 5.2 32 8.9 WSW 7 9 4 5 1013.5 1011.5 0.0
19/09:00pm 23.0 20.5 5.0 31 9.1 WSW 7 9 4 5 1013.3 1011.3 0.0
19/08:30pm 24.1 21.3 5.0 29 9.8 SW 9 11 5 6 1012.8 1010.8 0.0
19/08:00pm 25.2 22.1 5.4 28 10.3 SSW 11 15 6 8 1012.4 1010.5 0.0
19/07:30pm 26.1 22.3 5.7 27 10.7 SW 15 20 8 11 1012.0 1010.0 0.0
19/07:00pm 26.7 22.1 5.6 26 11.1 SW 19 28 10 15 1011.5 1009.5 0.0
19/06:30pm 27.6 22.8 5.8 25 11.5 SW 20 28 11 15 1011.0 1009.0 0.0

Other Formats:

Comma delimited format used in spreadsheet applications
http://www.bom.gov.au/fwo/IDW60801/IDW60801.94450.axf

JavaScript Object Notation format (JSON) in row-major order
http://www.bom.gov.au/fwo/IDW60801/IDW60801.94450.json